sensor_id;sensor_type;location;lat;lon;timestamp;P1;durP1;ratioP1;P2;durP2;ratioP2
16977;SDS011;8605;52.548;4.918;2023-01-23T00:03:37;4.27;;;2.47;;
16977;SDS011;8605;52.548;4.918;2023-01-23T00:08:41;7.70;;;3.87;;
16977;SDS011;8605;52.548;4.918;2023-01-23T00:13:44;8.57;;;3.13;;
16977;SDS011;8605;52.548;4.918;2023-01-23T00:18:48;6.20;;;3.63;;
16977;SDS011;8605;52.548;4.918;2023-01-23T00:23:52;7.50;;;3.43;;
16977;SDS011;8605;52.548;4.918;2023-01-23T00:28:56;9.10;;;3.97;;
16977;SDS011;8605;52.548;4.918;2023-01-23T00:34:01;7.03;;;3.83;;
16977;SDS011;8605;52.548;4.918;2023-01-23T00:39:05;6.27;;;4.07;;
16977;SDS011;8605;52.548;4.918;2023-01-23T00:44:09;6.33;;;4.40;;
16977;SDS011;8605;52.548;4.918;2023-01-23T00:49:14;4.20;;;3.60;;
16977;SDS011;8605;52.548;4.918;2023-01-23T00:54:18;7.67;;;3.83;;
16977;SDS011;8605;52.548;4.918;2023-01-23T00:59:21;8.33;;;3.53;;
16977;SDS011;8605;52.548;4.918;2023-01-23T01:04:25;6.80;;;3.87;;
16977;SDS011;8605;52.548;4.918;2023-01-23T01:09:28;5.17;;;3.60;;
16977;SDS011;8605;52.548;4.918;2023-01-23T01:14:31;6.40;;;3.97;;
16977;SDS011;8605;52.548;4.918;2023-01-23T01:19:36;5.33;;;3.60;;
16977;SDS011;8605;52.548;4.918;2023-01-23T01:24:39;8.77;;;4.37;;
16977;SDS011;8605;52.548;4.918;2023-01-23T01:29:43;7.13;;;4.60;;
16977;SDS011;8605;52.548;4.918;2023-01-23T01:34:47;7.30;;;4.00;;
16977;SDS011;8605;52.548;4.918;2023-01-23T01:39:50;8.53;;;4.43;;
16977;SDS011;8605;52.548;4.918;2023-01-23T01:44:53;8.63;;;4.13;;
16977;SDS011;8605;52.548;4.918;2023-01-23T01:50:00;5.77;;;3.40;;
16977;SDS011;8605;52.548;4.918;2023-01-23T01:55:05;7.07;;;4.23;;
16977;SDS011;8605;52.548;4.918;2023-01-23T02:00:10;8.07;;;4.43;;
16977;SDS011;8605;52.548;4.918;2023-01-23T02:05:20;7.17;;;4.37;;
16977;SDS011;8605;52.548;4.918;2023-01-23T02:10:24;6.63;;;3.90;;
16977;SDS011;8605;52.548;4.918;2023-01-23T02:15:27;9.30;;;4.47;;
16977;SDS011;8605;52.548;4.918;2023-01-23T02:20:31;9.37;;;4.37;;
16977;SDS011;8605;52.548;4.918;2023-01-23T02:25:36;6.23;;;3.87;;
16977;SDS011;8605;52.548;4.918;2023-01-23T02:30:43;7.90;;;4.80;;
16977;SDS011;8605;52.548;4.918;2023-01-23T02:35:47;7.93;;;4.97;;
16977;SDS011;8605;52.548;4.918;2023-01-23T02:40:51;5.90;;;4.00;;
16977;SDS011;8605;52.548;4.918;2023-01-23T02:46:01;8.17;;;4.00;;
16977;SDS011;8605;52.548;4.918;2023-01-23T02:51:05;7.27;;;4.10;;
16977;SDS011;8605;52.548;4.918;2023-01-23T02:56:08;7.77;;;3.53;;
16977;SDS011;8605;52.548;4.918;2023-01-23T03:01:12;6.80;;;4.30;;
16977;SDS011;8605;52.548;4.918;2023-01-23T03:06:15;5.83;;;4.10;;
16977;SDS011;8605;52.548;4.918;2023-01-23T03:11:22;6.70;;;4.27;;
16977;SDS011;8605;52.548;4.918;2023-01-23T03:16:27;6.47;;;3.63;;
16977;SDS011;8605;52.548;4.918;2023-01-23T03:21:31;7.60;;;4.27;;
16977;SDS011;8605;52.548;4.918;2023-01-23T03:26:36;7.27;;;4.03;;
16977;SDS011;8605;52.548;4.918;2023-01-23T03:31:42;9.77;;;5.20;;
16977;SDS011;8605;52.548;4.918;2023-01-23T03:36:45;7.70;;;4.57;;
16977;SDS011;8605;52.548;4.918;2023-01-23T03:41:48;8.80;;;4.67;;
16977;SDS011;8605;52.548;4.918;2023-01-23T03:46:54;11.30;;;4.20;;
16977;SDS011;8605;52.548;4.918;2023-01-23T03:51:57;11.37;;;3.97;;
16977;SDS011;8605;52.548;4.918;2023-01-23T03:57:01;8.43;;;3.87;;
16977;SDS011;8605;52.548;4.918;2023-01-23T04:02:29;7.37;;;4.20;;
16977;SDS011;8605;52.548;4.918;2023-01-23T04:07:31;8.77;;;4.83;;
16977;SDS011;8605;52.548;4.918;2023-01-23T04:12:34;7.90;;;4.93;;
16977;SDS011;8605;52.548;4.918;2023-01-23T04:17:39;10.27;;;5.40;;
16977;SDS011;8605;52.548;4.918;2023-01-23T04:22:43;13.47;;;5.27;;
16977;SDS011;8605;52.548;4.918;2023-01-23T04:27:46;8.00;;;5.43;;
16977;SDS011;8605;52.548;4.918;2023-01-23T04:32:50;9.73;;;4.93;;
16977;SDS011;8605;52.548;4.918;2023-01-23T04:37:54;13.47;;;6.87;;
16977;SDS011;8605;52.548;4.918;2023-01-23T04:42:57;10.10;;;5.63;;
16977;SDS011;8605;52.548;4.918;2023-01-23T04:48:06;13.90;;;6.70;;
16977;SDS011;8605;52.548;4.918;2023-01-23T04:53:11;10.47;;;5.40;;
16977;SDS011;8605;52.548;4.918;2023-01-23T04:58:15;9.53;;;5.37;;
16977;SDS011;8605;52.548;4.918;2023-01-23T05:03:20;9.57;;;5.90;;
16977;SDS011;8605;52.548;4.918;2023-01-23T05:08:25;12.17;;;6.30;;
16977;SDS011;8605;52.548;4.918;2023-01-23T05:13:41;11.40;;;5.67;;
16977;SDS011;8605;52.548;4.918;2023-01-23T05:18:46;10.23;;;5.10;;
16977;SDS011;8605;52.548;4.918;2023-01-23T05:23:50;8.77;;;5.30;;
16977;SDS011;8605;52.548;4.918;2023-01-23T05:28:54;12.93;;;5.60;;
16977;SDS011;8605;52.548;4.918;2023-01-23T05:34:00;10.63;;;5.60;;
16977;SDS011;8605;52.548;4.918;2023-01-23T05:39:04;8.73;;;5.33;;
16977;SDS011;8605;52.548;4.918;2023-01-23T05:44:07;10.43;;;6.07;;
16977;SDS011;8605;52.548;4.918;2023-01-23T05:49:26;10.83;;;5.67;;
16977;SDS011;8605;52.548;4.918;2023-01-23T05:54:29;10.57;;;4.77;;
16977;SDS011;8605;52.548;4.918;2023-01-23T05:59:33;15.83;;;5.97;;
16977;SDS011;8605;52.548;4.918;2023-01-23T06:04:57;10.90;;;6.30;;
16977;SDS011;8605;52.548;4.918;2023-01-23T06:10:17;9.53;;;6.13;;
16977;SDS011;8605;52.548;4.918;2023-01-23T06:15:20;12.57;;;6.23;;
16977;SDS011;8605;52.548;4.918;2023-01-23T06:20:28;13.60;;;6.03;;
16977;SDS011;8605;52.548;4.918;2023-01-23T06:25:31;14.30;;;6.33;;
16977;SDS011;8605;52.548;4.918;2023-01-23T06:30:38;12.17;;;6.70;;
16977;SDS011;8605;52.548;4.918;2023-01-23T06:35:57;10.33;;;6.10;;
16977;SDS011;8605;52.548;4.918;2023-01-23T06:41:00;12.17;;;6.33;;
16977;SDS011;8605;52.548;4.918;2023-01-23T06:46:10;13.60;;;7.33;;
16977;SDS011;8605;52.548;4.918;2023-01-23T06:51:17;13.20;;;6.53;;
16977;SDS011;8605;52.548;4.918;2023-01-23T06:56:21;11.50;;;6.67;;
16977;SDS011;8605;52.548;4.918;2023-01-23T07:01:25;14.87;;;7.73;;
16977;SDS011;8605;52.548;4.918;2023-01-23T07:06:52;13.27;;;7.37;;
16977;SDS011;8605;52.548;4.918;2023-01-23T07:11:55;16.37;;;7.70;;
16977;SDS011;8605;52.548;4.918;2023-01-23T07:16:58;15.03;;;7.23;;
16977;SDS011;8605;52.548;4.918;2023-01-23T07:22:05;10.67;;;6.63;;
16977;SDS011;8605;52.548;4.918;2023-01-23T07:27:08;11.67;;;6.43;;
16977;SDS011;8605;52.548;4.918;2023-01-23T07:32:11;10.30;;;6.87;;
16977;SDS011;8605;52.548;4.918;2023-01-23T07:37:15;14.20;;;7.07;;
16977;SDS011;8605;52.548;4.918;2023-01-23T07:42:17;13.83;;;7.27;;
16977;SDS011;8605;52.548;4.918;2023-01-23T07:47:20;13.87;;;7.23;;
16977;SDS011;8605;52.548;4.918;2023-01-23T07:52:25;18.63;;;7.43;;
16977;SDS011;8605;52.548;4.918;2023-01-23T07:57:28;11.40;;;7.43;;
16977;SDS011;8605;52.548;4.918;2023-01-23T08:02:31;15.40;;;6.77;;
16977;SDS011;8605;52.548;4.918;2023-01-23T08:07:35;13.27;;;6.53;;
16977;SDS011;8605;52.548;4.918;2023-01-23T08:12:41;13.53;;;6.53;;
16977;SDS011;8605;52.548;4.918;2023-01-23T08:17:44;13.13;;;7.67;;
16977;SDS011;8605;52.548;4.918;2023-01-23T08:22:48;9.73;;;6.10;;
16977;SDS011;8605;52.548;4.918;2023-01-23T08:27:51;20.90;;;8.00;;
16977;SDS011;8605;52.548;4.918;2023-01-23T08:32:59;12.43;;;6.70;;
16977;SDS011;8605;52.548;4.918;2023-01-23T08:38:06;16.40;;;9.23;;
16977;SDS011;8605;52.548;4.918;2023-01-23T08:43:10;15.37;;;7.70;;
16977;SDS011;8605;52.548;4.918;2023-01-23T08:48:14;18.77;;;8.47;;
16977;SDS011;8605;52.548;4.918;2023-01-23T08:53:19;13.90;;;7.57;;
16977;SDS011;8605;52.548;4.918;2023-01-23T08:58:21;16.13;;;8.30;;
16977;SDS011;8605;52.548;4.918;2023-01-23T09:03:25;14.77;;;7.37;;
16977;SDS011;8605;52.548;4.918;2023-01-23T09:08:29;14.13;;;7.43;;
16977;SDS011;8605;52.548;4.918;2023-01-23T09:13:33;15.67;;;8.13;;
16977;SDS011;8605;52.548;4.918;2023-01-23T09:18:36;19.23;;;8.27;;
16977;SDS011;8605;52.548;4.918;2023-01-23T09:23:41;16.73;;;7.30;;
16977;SDS011;8605;52.548;4.918;2023-01-23T09:28:44;17.43;;;9.13;;
16977;SDS011;8605;52.548;4.918;2023-01-23T09:33:47;18.23;;;9.13;;
16977;SDS011;8605;52.548;4.918;2023-01-23T09:38:51;18.63;;;9.37;;
16977;SDS011;8605;52.548;4.918;2023-01-23T09:43:58;19.37;;;8.23;;
16977;SDS011;8605;52.548;4.918;2023-01-23T09:49:09;15.93;;;8.23;;
16977;SDS011;8605;52.548;4.918;2023-01-23T09:54:24;18.17;;;10.63;;
16977;SDS011;8605;52.548;4.918;2023-01-23T09:59:33;15.33;;;8.17;;
16977;SDS011;8605;52.548;4.918;2023-01-23T10:04:55;13.13;;;6.97;;
16977;SDS011;8605;52.548;4.918;2023-01-23T10:10:13;15.77;;;7.40;;
16977;SDS011;8605;52.548;4.918;2023-01-23T10:15:26;18.67;;;8.10;;
16977;SDS011;8605;52.548;4.918;2023-01-23T10:20:40;16.40;;;8.70;;
16977;SDS011;8605;52.548;4.918;2023-01-23T10:25:48;15.90;;;9.43;;
16977;SDS011;8605;52.548;4.918;2023-01-23T10:30:52;15.97;;;8.13;;
16977;SDS011;8605;52.548;4.918;2023-01-23T10:36:00;16.60;;;8.30;;
16977;SDS011;8605;52.548;4.918;2023-01-23T10:41:08;12.93;;;7.77;;
16977;SDS011;8605;52.548;4.918;2023-01-23T10:46:16;12.63;;;6.93;;
16977;SDS011;8605;52.548;4.918;2023-01-23T10:51:23;15.20;;;8.27;;
16977;SDS011;8605;52.548;4.918;2023-01-23T10:56:32;13.67;;;7.50;;
16977;SDS011;8605;52.548;4.918;2023-01-23T11:01:36;13.30;;;7.10;;
16977;SDS011;8605;52.548;4.918;2023-01-23T11:06:42;14.57;;;7.53;;
16977;SDS011;8605;52.548;4.918;2023-01-23T11:11:58;19.13;;;9.63;;
16977;SDS011;8605;52.548;4.918;2023-01-23T11:17:10;17.63;;;8.93;;
16977;SDS011;8605;52.548;4.918;2023-01-23T11:27:44;12.77;;;6.73;;
16977;SDS011;8605;52.548;4.918;2023-01-23T11:32:58;13.13;;;7.10;;
16977;SDS011;8605;52.548;4.918;2023-01-23T11:38:07;12.80;;;6.57;;
16977;SDS011;8605;52.548;4.918;2023-01-23T11:43:14;25.00;;;6.73;;
16977;SDS011;8605;52.548;4.918;2023-01-23T11:48:21;12.57;;;6.47;;
16977;SDS011;8605;52.548;4.918;2023-01-23T11:53:30;11.50;;;6.90;;
16977;SDS011;8605;52.548;4.918;2023-01-23T11:58:54;14.07;;;6.00;;
16977;SDS011;8605;52.548;4.918;2023-01-23T12:09:55;12.53;;;7.07;;
16977;SDS011;8605;52.548;4.918;2023-01-23T12:15:08;11.97;;;5.93;;
16977;SDS011;8605;52.548;4.918;2023-01-23T12:20:19;10.27;;;5.70;;
16977;SDS011;8605;52.548;4.918;2023-01-23T12:25:31;6.83;;;4.80;;
16977;SDS011;8605;52.548;4.918;2023-01-23T12:30:46;10.53;;;5.70;;
16977;SDS011;8605;52.548;4.918;2023-01-23T12:35:55;8.47;;;5.00;;
16977;SDS011;8605;52.548;4.918;2023-01-23T12:41:07;9.67;;;4.97;;
16977;SDS011;8605;52.548;4.918;2023-01-23T12:46:18;11.60;;;6.20;;
16977;SDS011;8605;52.548;4.918;2023-01-23T12:51:25;9.07;;;4.07;;
16977;SDS011;8605;52.548;4.918;2023-01-23T12:56:32;12.70;;;5.67;;
16977;SDS011;8605;52.548;4.918;2023-01-23T13:01:51;6.57;;;4.77;;
16977;SDS011;8605;52.548;4.918;2023-01-23T13:12:23;9.23;;;5.37;;
16977;SDS011;8605;52.548;4.918;2023-01-23T13:17:29;13.73;;;5.60;;
16977;SDS011;8605;52.548;4.918;2023-01-23T13:22:42;9.13;;;4.40;;
16977;SDS011;8605;52.548;4.918;2023-01-23T13:27:47;5.23;;;3.67;;
16977;SDS011;8605;52.548;4.918;2023-01-23T13:32:54;5.90;;;3.67;;
16977;SDS011;8605;52.548;4.918;2023-01-23T13:38:01;4.13;;;2.33;;
16977;SDS011;8605;52.548;4.918;2023-01-23T13:48:47;3.70;;;2.80;;
16977;SDS011;8605;52.548;4.918;2023-01-23T13:54:26;4.20;;;2.40;;
16977;SDS011;8605;52.548;4.918;2023-01-23T14:00:06;5.13;;;3.63;;
16977;SDS011;8605;52.548;4.918;2023-01-23T14:05:31;2.87;;;2.10;;
16977;SDS011;8605;52.548;4.918;2023-01-23T14:10:49;3.03;;;2.73;;
16977;SDS011;8605;52.548;4.918;2023-01-23T14:16:08;2.50;;;1.50;;
16977;SDS011;8605;52.548;4.918;2023-01-23T14:21:30;3.87;;;1.80;;
16977;SDS011;8605;52.548;4.918;2023-01-23T14:26:47;3.00;;;1.80;;
16977;SDS011;8605;52.548;4.918;2023-01-23T14:31:51;2.73;;;1.70;;
16977;SDS011;8605;52.548;4.918;2023-01-23T14:37:00;1.90;;;1.73;;
16977;SDS011;8605;52.548;4.918;2023-01-23T14:42:12;4.17;;;2.00;;
16977;SDS011;8605;52.548;4.918;2023-01-23T14:47:25;3.17;;;2.13;;
16977;SDS011;8605;52.548;4.918;2023-01-23T14:52:35;3.43;;;2.17;;
16977;SDS011;8605;52.548;4.918;2023-01-23T14:57:38;3.33;;;2.37;;
16977;SDS011;8605;52.548;4.918;2023-01-23T15:02:41;5.67;;;3.20;;
16977;SDS011;8605;52.548;4.918;2023-01-23T15:07:50;3.53;;;1.73;;
16977;SDS011;8605;52.548;4.918;2023-01-23T15:12:56;3.03;;;2.03;;
16977;SDS011;8605;52.548;4.918;2023-01-23T15:18:01;3.60;;;2.67;;
16977;SDS011;8605;52.548;4.918;2023-01-23T15:23:19;3.73;;;2.40;;
16977;SDS011;8605;52.548;4.918;2023-01-23T15:28:36;2.67;;;2.33;;
16977;SDS011;8605;52.548;4.918;2023-01-23T15:33:41;2.93;;;2.13;;
16977;SDS011;8605;52.548;4.918;2023-01-23T15:38:47;11.70;;;2.07;;
16977;SDS011;8605;52.548;4.918;2023-01-23T15:43:53;2.87;;;2.13;;
16977;SDS011;8605;52.548;4.918;2023-01-23T15:48:55;6.03;;;2.53;;
16977;SDS011;8605;52.548;4.918;2023-01-23T15:54:01;3.47;;;2.07;;
16977;SDS011;8605;52.548;4.918;2023-01-23T15:59:07;5.57;;;2.90;;
16977;SDS011;8605;52.548;4.918;2023-01-23T16:04:11;3.30;;;2.27;;
16977;SDS011;8605;52.548;4.918;2023-01-23T16:09:21;5.23;;;2.93;;
16977;SDS011;8605;52.548;4.918;2023-01-23T16:14:25;5.10;;;1.73;;
16977;SDS011;8605;52.548;4.918;2023-01-23T16:19:28;6.60;;;2.90;;
16977;SDS011;8605;52.548;4.918;2023-01-23T16:24:55;2.63;;;2.07;;
16977;SDS011;8605;52.548;4.918;2023-01-23T16:30:01;3.97;;;2.30;;
16977;SDS011;8605;52.548;4.918;2023-01-23T16:35:05;6.00;;;2.57;;
16977;SDS011;8605;52.548;4.918;2023-01-23T16:40:17;2.30;;;1.63;;
16977;SDS011;8605;52.548;4.918;2023-01-23T16:45:22;5.37;;;3.17;;
16977;SDS011;8605;52.548;4.918;2023-01-23T16:50:27;4.30;;;2.33;;
16977;SDS011;8605;52.548;4.918;2023-01-23T16:55:39;4.57;;;2.60;;
16977;SDS011;8605;52.548;4.918;2023-01-23T17:00:42;3.03;;;2.30;;
16977;SDS011;8605;52.548;4.918;2023-01-23T17:05:45;2.77;;;1.90;;
16977;SDS011;8605;52.548;4.918;2023-01-23T17:10:50;3.93;;;1.90;;
16977;SDS011;8605;52.548;4.918;2023-01-23T17:15:55;3.10;;;1.87;;
16977;SDS011;8605;52.548;4.918;2023-01-23T17:20:59;4.23;;;2.07;;
16977;SDS011;8605;52.548;4.918;2023-01-23T17:26:04;3.87;;;2.10;;
16977;SDS011;8605;52.548;4.918;2023-01-23T17:31:07;5.43;;;2.40;;
16977;SDS011;8605;52.548;4.918;2023-01-23T17:36:18;6.20;;;2.67;;
16977;SDS011;8605;52.548;4.918;2023-01-23T17:41:22;4.23;;;2.23;;
16977;SDS011;8605;52.548;4.918;2023-01-23T17:46:26;3.57;;;2.90;;
16977;SDS011;8605;52.548;4.918;2023-01-23T17:51:30;5.43;;;3.13;;
16977;SDS011;8605;52.548;4.918;2023-01-23T17:56:57;3.27;;;2.43;;
16977;SDS011;8605;52.548;4.918;2023-01-23T18:02:00;5.23;;;2.93;;
16977;SDS011;8605;52.548;4.918;2023-01-23T18:07:03;4.80;;;2.57;;
16977;SDS011;8605;52.548;4.918;2023-01-23T18:12:08;4.70;;;3.07;;
16977;SDS011;8605;52.548;4.918;2023-01-23T18:17:12;5.97;;;3.60;;
16977;SDS011;8605;52.548;4.918;2023-01-23T18:22:17;6.67;;;3.20;;
16977;SDS011;8605;52.548;4.918;2023-01-23T18:27:23;7.57;;;4.23;;
16977;SDS011;8605;52.548;4.918;2023-01-23T18:38:05;4.53;;;3.27;;
16977;SDS011;8605;52.548;4.918;2023-01-23T18:43:15;5.17;;;3.63;;
16977;SDS011;8605;52.548;4.918;2023-01-23T18:48:24;6.20;;;3.83;;
16977;SDS011;8605;52.548;4.918;2023-01-23T18:53:31;8.33;;;3.97;;
16977;SDS011;8605;52.548;4.918;2023-01-23T18:58:47;7.70;;;4.87;;
16977;SDS011;8605;52.548;4.918;2023-01-23T19:04:14;5.40;;;3.77;;
16977;SDS011;8605;52.548;4.918;2023-01-23T19:09:18;8.13;;;5.10;;
16977;SDS011;8605;52.548;4.918;2023-01-23T19:14:28;7.03;;;3.57;;
16977;SDS011;8605;52.548;4.918;2023-01-23T19:19:44;6.90;;;4.00;;
16977;SDS011;8605;52.548;4.918;2023-01-23T19:24:52;5.83;;;4.37;;
16977;SDS011;8605;52.548;4.918;2023-01-23T19:29:57;7.77;;;4.07;;
16977;SDS011;8605;52.548;4.918;2023-01-23T19:35:00;12.07;;;6.13;;
16977;SDS011;8605;52.548;4.918;2023-01-23T19:40:23;10.23;;;5.63;;
16977;SDS011;8605;52.548;4.918;2023-01-23T19:45:27;8.13;;;6.03;;
16977;SDS011;8605;52.548;4.918;2023-01-23T19:50:30;10.30;;;5.13;;
16977;SDS011;8605;52.548;4.918;2023-01-23T19:55:56;11.23;;;6.27;;
16977;SDS011;8605;52.548;4.918;2023-01-23T20:01:03;13.27;;;6.50;;
16977;SDS011;8605;52.548;4.918;2023-01-23T20:06:07;9.90;;;6.10;;
16977;SDS011;8605;52.548;4.918;2023-01-23T20:11:10;11.47;;;5.93;;
16977;SDS011;8605;52.548;4.918;2023-01-23T20:16:16;12.37;;;7.50;;
16977;SDS011;8605;52.548;4.918;2023-01-23T20:21:21;11.40;;;6.40;;
16977;SDS011;8605;52.548;4.918;2023-01-23T20:26:25;11.33;;;6.77;;
16977;SDS011;8605;52.548;4.918;2023-01-23T20:31:29;9.50;;;5.33;;
16977;SDS011;8605;52.548;4.918;2023-01-23T20:36:33;10.23;;;5.10;;
16977;SDS011;8605;52.548;4.918;2023-01-23T20:41:36;9.47;;;5.23;;
16977;SDS011;8605;52.548;4.918;2023-01-23T20:46:40;12.30;;;5.83;;
16977;SDS011;8605;52.548;4.918;2023-01-23T20:51:43;11.20;;;6.17;;
16977;SDS011;8605;52.548;4.918;2023-01-23T20:56:46;14.37;;;6.87;;
16977;SDS011;8605;52.548;4.918;2023-01-23T21:01:50;12.70;;;6.10;;
16977;SDS011;8605;52.548;4.918;2023-01-23T21:07:14;12.63;;;6.77;;
16977;SDS011;8605;52.548;4.918;2023-01-23T21:12:17;13.87;;;6.43;;
16977;SDS011;8605;52.548;4.918;2023-01-23T21:17:21;12.27;;;6.27;;
16977;SDS011;8605;52.548;4.918;2023-01-23T21:22:24;12.73;;;6.90;;
16977;SDS011;8605;52.548;4.918;2023-01-23T21:27:27;13.70;;;6.67;;
16977;SDS011;8605;52.548;4.918;2023-01-23T21:32:32;12.63;;;6.47;;
16977;SDS011;8605;52.548;4.918;2023-01-23T21:37:35;13.30;;;6.83;;
16977;SDS011;8605;52.548;4.918;2023-01-23T21:42:38;14.53;;;7.87;;
16977;SDS011;8605;52.548;4.918;2023-01-23T21:47:42;14.13;;;6.23;;
16977;SDS011;8605;52.548;4.918;2023-01-23T21:52:45;11.10;;;6.20;;
16977;SDS011;8605;52.548;4.918;2023-01-23T21:57:48;14.53;;;7.67;;
16977;SDS011;8605;52.548;4.918;2023-01-23T22:02:52;13.20;;;7.07;;
16977;SDS011;8605;52.548;4.918;2023-01-23T22:07:55;12.30;;;6.43;;
16977;SDS011;8605;52.548;4.918;2023-01-23T22:12:58;11.37;;;7.00;;
16977;SDS011;8605;52.548;4.918;2023-01-23T22:18:03;16.23;;;7.10;;
16977;SDS011;8605;52.548;4.918;2023-01-23T22:23:06;16.37;;;8.13;;
16977;SDS011;8605;52.548;4.918;2023-01-23T22:28:09;17.27;;;8.07;;
16977;SDS011;8605;52.548;4.918;2023-01-23T22:33:13;13.57;;;6.83;;
16977;SDS011;8605;52.548;4.918;2023-01-23T22:38:16;13.10;;;6.20;;
16977;SDS011;8605;52.548;4.918;2023-01-23T22:43:19;12.23;;;6.90;;
16977;SDS011;8605;52.548;4.918;2023-01-23T22:48:23;16.30;;;7.60;;
16977;SDS011;8605;52.548;4.918;2023-01-23T22:53:26;13.10;;;7.33;;
16977;SDS011;8605;52.548;4.918;2023-01-23T22:58:29;15.57;;;7.60;;
16977;SDS011;8605;52.548;4.918;2023-01-23T23:03:33;12.07;;;6.20;;
16977;SDS011;8605;52.548;4.918;2023-01-23T23:08:36;14.40;;;8.37;;
16977;SDS011;8605;52.548;4.918;2023-01-23T23:13:39;13.90;;;7.17;;
16977;SDS011;8605;52.548;4.918;2023-01-23T23:18:43;17.23;;;7.67;;
16977;SDS011;8605;52.548;4.918;2023-01-23T23:23:47;13.90;;;8.03;;
16977;SDS011;8605;52.548;4.918;2023-01-23T23:28:50;12.37;;;6.43;;
16977;SDS011;8605;52.548;4.918;2023-01-23T23:33:54;15.10;;;8.23;;
16977;SDS011;8605;52.548;4.918;2023-01-23T23:38:57;12.50;;;7.57;;
16977;SDS011;8605;52.548;4.918;2023-01-23T23:44:00;13.37;;;7.30;;
16977;SDS011;8605;52.548;4.918;2023-01-23T23:49:04;17.60;;;9.20;;
16977;SDS011;8605;52.548;4.918;2023-01-23T23:54:07;16.13;;;8.83;;
16977;SDS011;8605;52.548;4.918;2023-01-23T23:59:12;17.77;;;9.37;;
